createdAt,value
2018-06-04T00:01:28.364Z,4.07
2018-06-04T00:03:57.413Z,5.07
2018-06-04T00:06:26.672Z,6.07
2018-06-04T00:08:55.866Z,4.47
2018-06-04T00:11:24.841Z,6.37
2018-06-04T00:13:54.104Z,7.80
2018-06-04T00:16:23.332Z,6.27
2018-06-04T00:18:52.570Z,4.03
2018-06-04T00:21:21.962Z,5.20
2018-06-04T00:23:50.552Z,6.80
2018-06-04T00:26:19.056Z,7.33
2018-06-04T00:28:48.309Z,5.97
2018-06-04T00:31:16.802Z,3.77
2018-06-04T00:33:45.305Z,6.50
2018-06-04T00:36:14.590Z,5.70
2018-06-04T00:38:43.903Z,5.53
2018-06-04T00:41:13.059Z,4.20
2018-06-04T00:43:42.048Z,4.57
2018-06-04T00:46:11.314Z,6.10
2018-06-04T00:48:40.527Z,4.93
2018-06-04T00:51:09.748Z,5.33
2018-06-04T00:53:38.953Z,4.60
2018-06-04T00:56:13.129Z,6.07
2018-06-04T00:58:42.375Z,7.50
2018-06-04T01:01:11.595Z,3.70
2018-06-04T01:03:40.815Z,11.30
2018-06-04T01:06:10.022Z,5.80
2018-06-04T01:08:38.559Z,5.20
2018-06-04T01:11:07.901Z,7.50
2018-06-04T01:13:36.418Z,10.00
2018-06-04T01:16:05.383Z,7.40
2018-06-04T01:18:34.349Z,9.30
2018-06-04T01:21:03.729Z,8.33
2018-06-04T01:23:33.057Z,9.77
2018-06-04T01:26:02.072Z,5.50
2018-06-04T01:28:31.284Z,5.17
2018-06-04T01:31:00.533Z,5.43
2018-06-04T01:33:29.539Z,5.67
2018-06-04T01:35:58.772Z,4.63
2018-06-04T01:38:28.008Z,6.50
2018-06-04T01:40:56.997Z,7.83
2018-06-04T01:43:26.082Z,5.70
2018-06-04T01:45:55.291Z,5.43
2018-06-04T01:48:24.509Z,5.83
2018-06-04T01:50:53.733Z,4.37
2018-06-04T01:53:22.990Z,5.73
2018-06-04T01:55:52.192Z,4.10
2018-06-04T01:58:21.410Z,5.30
2018-06-04T02:00:50.633Z,6.37
2018-06-04T02:03:19.871Z,5.83
2018-06-04T02:05:49.086Z,4.00
2018-06-04T02:08:17.598Z,5.80
2018-06-04T02:10:46.781Z,8.93
2018-06-04T02:13:16.162Z,7.47
2018-06-04T02:15:45.465Z,8.37
2018-06-04T02:18:14.630Z,5.90
2018-06-04T02:20:43.639Z,6.80
2018-06-04T02:23:12.136Z,5.97
2018-06-04T02:25:41.344Z,5.50
2018-06-04T02:28:10.366Z,7.63
2018-06-04T02:30:39.580Z,7.77
2018-06-04T02:33:08.628Z,6.63
2018-06-04T02:35:37.615Z,6.77
2018-06-04T02:38:07.005Z,5.20
2018-06-04T02:40:35.525Z,6.30
2018-06-04T02:43:04.035Z,8.60
2018-06-04T02:45:32.534Z,6.87
2018-06-04T02:48:01.184Z,6.23
2018-06-04T02:50:29.692Z,8.47
2018-06-04T02:52:58.185Z,6.00
2018-06-04T02:55:27.333Z,5.90
2018-06-04T02:57:56.569Z,8.40
2018-06-04T03:00:25.786Z,7.57
2018-06-04T03:02:55.038Z,7.33
2018-06-04T03:05:24.259Z,8.57
2018-06-04T03:07:53.483Z,7.00
2018-06-04T03:10:22.696Z,12.47
2018-06-04T03:12:51.947Z,8.20
2018-06-04T03:15:21.140Z,8.63
2018-06-04T03:17:50.180Z,11.50
2018-06-04T03:20:19.726Z,11.40
2018-06-04T03:22:49.021Z,10.13
2018-06-04T03:25:18.008Z,8.47
2018-06-04T03:27:47.448Z,10.63
2018-06-04T03:30:15.958Z,9.63
2018-06-04T03:32:44.491Z,10.33
2018-06-04T03:35:12.975Z,8.87
2018-06-04T03:37:41.535Z,8.97
2018-06-04T03:40:10.029Z,10.77
2018-06-04T03:42:39.066Z,10.50
2018-06-04T03:45:08.494Z,10.53
2018-06-04T03:47:37.732Z,11.33
2018-06-04T03:50:07.388Z,10.50
2018-06-04T03:52:36.731Z,11.70
2018-06-04T03:55:05.242Z,10.43
2018-06-04T03:57:33.757Z,11.67
2018-06-04T04:00:02.279Z,13.10
2018-06-04T04:02:30.964Z,10.77
2018-06-04T04:04:59.465Z,13.27
2018-06-04T04:07:27.968Z,10.17
2018-06-04T04:09:56.458Z,13.47
2018-06-04T04:12:24.969Z,14.13
2018-06-04T04:14:53.502Z,13.63
2018-06-04T04:17:22.041Z,14.07
2018-06-04T04:19:52.171Z,13.50
2018-06-04T04:22:21.525Z,17.00
2018-06-04T04:24:50.095Z,13.77
2018-06-04T04:27:18.604Z,13.50
2018-06-04T04:29:47.113Z,14.97
2018-06-04T04:32:15.634Z,13.90
2018-06-04T04:34:44.177Z,14.00
2018-06-04T04:37:13.186Z,12.40
2018-06-04T04:39:42.233Z,13.70
2018-06-04T04:42:11.473Z,12.93
2018-06-04T04:44:40.714Z,14.10
2018-06-04T04:47:09.228Z,13.60
2018-06-04T04:49:37.732Z,10.57
2018-06-04T04:52:06.267Z,15.53
2018-06-04T04:54:34.779Z,10.50
2018-06-04T04:57:03.474Z,11.73
2018-06-04T04:59:32.033Z,11.13
2018-06-04T05:02:00.539Z,12.13
2018-06-04T05:04:29.049Z,10.67
2018-06-04T05:06:57.556Z,8.33
2018-06-04T05:09:26.068Z,10.37
2018-06-04T05:11:54.685Z,10.80
2018-06-04T05:14:23.251Z,10.93
2018-06-04T05:16:51.785Z,12.23
2018-06-04T05:19:20.614Z,10.13
2018-06-04T05:21:49.148Z,10.43
2018-06-04T05:24:17.644Z,13.03
2018-06-04T05:26:46.159Z,8.10
2018-06-04T05:29:16.613Z,8.80
2018-06-04T05:31:45.591Z,6.83
2018-06-04T05:34:14.828Z,10.87
2018-06-04T05:36:44.056Z,9.37
2018-06-04T05:39:13.490Z,11.53
2018-06-04T05:41:42.693Z,9.07
2018-06-04T05:44:11.929Z,7.67
2018-06-04T05:46:40.923Z,9.20
2018-06-04T05:49:09.943Z,10.87
2018-06-04T05:51:39.188Z,11.20
2018-06-04T05:54:07.690Z,10.77
2018-06-04T05:56:36.597Z,10.67
2018-06-04T05:59:05.163Z,13.17
2018-06-04T06:01:33.757Z,13.43
2018-06-04T06:04:02.263Z,16.13
2018-06-04T06:06:30.773Z,17.83
2018-06-04T06:08:59.309Z,14.30
2018-06-04T06:11:27.922Z,12.27
2018-06-04T06:13:56.435Z,17.00
2018-06-04T06:16:25.585Z,12.63
2018-06-04T06:18:54.821Z,15.50
2018-06-04T06:21:24.024Z,21.20
2018-06-04T06:23:53.249Z,14.73
2018-06-04T06:26:22.266Z,12.83
2018-06-04T06:28:51.512Z,17.70
2018-06-04T06:31:20.505Z,14.43
2018-06-04T06:33:49.580Z,15.73
2018-06-04T06:36:18.602Z,12.30
2018-06-04T06:38:47.824Z,18.23
2018-06-04T06:41:17.250Z,15.30
2018-06-04T06:43:46.488Z,15.90
2018-06-04T06:46:15.702Z,14.93
2018-06-04T06:48:44.234Z,14.37
2018-06-04T06:51:13.376Z,13.90
2018-06-04T06:53:42.555Z,16.37
2018-06-04T06:56:11.822Z,13.17
2018-06-04T06:58:41.044Z,16.80
2018-06-04T07:01:10.046Z,18.67
2018-06-04T07:03:39.080Z,16.73
2018-06-04T07:06:08.141Z,15.03
2018-06-04T07:08:37.360Z,13.40
2018-06-04T07:11:06.387Z,9.87
2018-06-04T07:13:35.417Z,12.83
2018-06-04T07:16:04.636Z,11.97
2018-06-04T07:18:33.144Z,13.33
2018-06-04T07:21:02.314Z,19.53
2018-06-04T07:23:31.304Z,13.23
2018-06-04T07:26:00.735Z,9.43
2018-06-04T07:28:29.994Z,15.57
2018-06-04T07:30:59.204Z,9.27
2018-06-04T07:33:28.217Z,10.70
2018-06-04T07:36:01.066Z,12.63
2018-06-04T07:38:29.676Z,12.33
2018-06-04T07:40:58.920Z,14.83
2018-06-04T07:43:28.108Z,13.63
2018-06-04T07:45:57.352Z,13.73
2018-06-04T07:48:26.578Z,14.20
2018-06-04T07:50:55.785Z,18.67
2018-06-04T07:53:25.002Z,14.00
2018-06-04T07:55:54.220Z,12.07
2018-06-04T07:58:23.481Z,14.77
2018-06-04T08:00:52.741Z,12.57
2018-06-04T08:03:21.906Z,9.50
2018-06-04T08:05:50.522Z,12.67
2018-06-04T08:08:19.778Z,11.27
2018-06-04T08:10:49.022Z,12.40
2018-06-04T08:13:18.230Z,12.33
2018-06-04T08:15:47.260Z,16.33
2018-06-04T08:18:16.500Z,14.93
2018-06-04T08:20:45.729Z,13.67
2018-06-04T08:23:14.945Z,11.83
2018-06-04T08:25:43.457Z,12.90
2018-06-04T08:28:12.599Z,12.40
2018-06-04T08:30:41.817Z,13.73
2018-06-04T08:33:10.845Z,14.87
2018-06-04T08:35:39.845Z,9.70
2018-06-04T08:38:08.366Z,9.77
2018-06-04T08:40:37.316Z,15.87
2018-06-04T08:43:06.607Z,9.53
2018-06-04T08:45:35.674Z,9.67
2018-06-04T08:48:04.833Z,12.57
2018-06-04T08:50:34.067Z,12.03
2018-06-04T08:53:03.061Z,12.87
2018-06-04T08:55:32.348Z,11.40
2018-06-04T08:58:01.565Z,9.60
2018-06-04T09:00:30.769Z,15.77
2018-06-04T09:02:59.756Z,8.87
2018-06-04T09:05:28.994Z,9.73
2018-06-04T09:07:57.545Z,8.50
2018-06-04T09:10:26.477Z,9.27
2018-06-04T09:12:55.510Z,9.20
2018-06-04T09:15:24.060Z,10.10
2018-06-04T09:17:52.614Z,12.03
2018-06-04T09:20:21.122Z,11.53
2018-06-04T09:22:49.620Z,9.27
2018-06-04T09:25:18.122Z,13.70
2018-06-04T09:27:46.773Z,8.77
2018-06-04T09:30:15.346Z,13.43
2018-06-04T09:32:44.617Z,12.37
2018-06-04T09:35:13.118Z,18.37
2018-06-04T09:37:41.757Z,11.83
2018-06-04T09:40:10.245Z,13.23
2018-06-04T09:42:38.780Z,8.33
2018-06-04T09:45:07.313Z,8.97
2018-06-04T09:47:35.917Z,11.77
2018-06-04T09:50:04.511Z,6.43
2018-06-04T09:52:33.082Z,6.67
2018-06-04T09:55:01.573Z,8.73
2018-06-04T09:57:30.093Z,8.83
2018-06-04T09:59:58.618Z,7.37
2018-06-04T10:02:27.201Z,7.17
2018-06-04T10:04:55.712Z,6.10
2018-06-04T10:07:24.192Z,9.47
2018-06-04T10:09:52.700Z,5.90
2018-06-04T10:12:21.204Z,7.13
2018-06-04T10:14:49.705Z,5.23
2018-06-04T10:17:18.315Z,4.97
2018-06-04T10:19:47.354Z,5.17
2018-06-04T10:22:15.857Z,5.63
2018-06-04T10:24:44.345Z,7.40
2018-06-04T10:27:12.862Z,5.87
2018-06-04T10:29:41.565Z,7.47
2018-06-04T10:32:10.077Z,7.87
2018-06-04T10:34:38.588Z,9.57
2018-06-04T10:37:07.082Z,6.53
2018-06-04T10:39:35.584Z,6.10
2018-06-04T10:42:04.090Z,5.37
2018-06-04T10:44:32.604Z,14.00
2018-06-04T10:47:01.223Z,6.90
2018-06-04T10:49:30.303Z,12.97
2018-06-04T10:51:58.899Z,7.70
2018-06-04T10:54:27.423Z,5.97
2018-06-04T10:56:56.326Z,5.53
2018-06-04T10:59:25.559Z,8.13
2018-06-04T11:01:54.912Z,7.47
2018-06-04T11:04:23.397Z,5.80
2018-06-04T11:06:51.894Z,5.83
2018-06-04T11:09:20.384Z,4.63
2018-06-04T11:11:49.658Z,7.47
2018-06-04T11:14:18.174Z,17.27
2018-06-04T11:16:47.697Z,7.77
2018-06-04T11:19:16.874Z,8.27
2018-06-04T11:21:45.438Z,6.87
2018-06-04T11:24:14.480Z,10.37
2018-06-04T11:26:42.997Z,9.13
2018-06-04T11:29:11.812Z,6.47
2018-06-04T11:31:40.506Z,11.67
2018-06-04T11:34:10.267Z,11.23
2018-06-04T11:36:39.357Z,8.63
2018-06-04T11:39:08.417Z,8.00
2018-06-04T11:41:36.928Z,7.37
2018-06-04T11:44:07.031Z,7.00
2018-06-04T11:46:36.579Z,7.03
2018-06-04T11:49:05.106Z,5.47
2018-06-04T11:51:34.592Z,5.20
2018-06-04T11:54:03.562Z,7.83
2018-06-04T11:56:32.594Z,4.70
2018-06-04T11:59:02.042Z,6.53
2018-06-04T12:01:30.610Z,5.97
2018-06-04T12:03:59.121Z,3.87
2018-06-04T12:06:27.639Z,3.73
2018-06-04T12:08:56.206Z,8.47
2018-06-04T12:11:24.803Z,8.33
2018-06-04T12:13:53.305Z,4.00
2018-06-04T12:16:21.830Z,7.43
2018-06-04T12:18:50.324Z,10.67
2018-06-04T12:21:18.872Z,4.13
2018-06-04T12:23:47.344Z,4.03
2018-06-04T12:26:15.948Z,4.07
2018-06-04T12:28:44.504Z,6.73
2018-06-04T12:31:13.000Z,4.77
2018-06-04T12:33:41.614Z,4.07
2018-06-04T12:36:10.177Z,6.47
2018-06-04T12:38:38.793Z,7.60
2018-06-04T12:41:07.305Z,7.13
2018-06-04T12:43:35.802Z,10.93
2018-06-04T12:46:04.321Z,10.83
2018-06-04T12:48:32.832Z,5.67
2018-06-04T12:51:01.327Z,5.10
2018-06-04T12:53:29.828Z,5.37
2018-06-04T12:55:58.305Z,6.43
2018-06-04T12:58:26.841Z,5.77
2018-06-04T13:00:55.376Z,6.43
2018-06-04T13:03:23.917Z,7.47
2018-06-04T13:05:52.646Z,8.33
2018-06-04T13:08:21.145Z,7.60
2018-06-04T13:10:49.647Z,8.70
2018-06-04T13:13:18.186Z,8.00
2018-06-04T13:15:46.761Z,5.37
2018-06-04T13:18:15.280Z,8.40
2018-06-04T13:20:43.808Z,5.30
2018-06-04T13:23:12.352Z,9.23
2018-06-04T13:25:40.934Z,5.07
2018-06-04T13:28:09.458Z,6.20
2018-06-04T13:30:37.991Z,5.23
2018-06-04T13:33:06.658Z,4.77
2018-06-04T13:35:35.208Z,6.73
2018-06-04T13:38:03.884Z,4.83
2018-06-04T13:40:32.388Z,10.43
2018-06-04T13:43:00.853Z,7.87
2018-06-04T13:45:29.354Z,6.87
2018-06-04T13:47:57.929Z,8.73
2018-06-04T13:50:26.494Z,7.43
2018-06-04T13:52:55.003Z,5.33
2018-06-04T13:55:23.517Z,7.23
2018-06-04T13:57:52.016Z,6.00
2018-06-04T14:00:20.509Z,6.53
2018-06-04T14:02:49.048Z,3.27
2018-06-04T14:05:17.589Z,7.57
2018-06-04T14:07:46.080Z,7.07
2018-06-04T14:10:14.604Z,6.50
2018-06-04T14:12:43.213Z,4.23
2018-06-04T14:15:11.710Z,5.83
2018-06-04T14:17:40.216Z,3.10
2018-06-04T14:20:08.729Z,4.20
2018-06-04T14:22:37.209Z,6.43
2018-06-04T14:25:06.037Z,5.57
2018-06-04T14:27:34.733Z,6.30
2018-06-04T14:30:03.255Z,8.00
2018-06-04T14:32:31.781Z,5.30
2018-06-04T14:35:00.280Z,4.13
2018-06-04T14:37:29.284Z,7.00
2018-06-04T14:39:57.906Z,3.33
2018-06-04T14:42:26.441Z,7.10
2018-06-04T14:44:55.012Z,4.67
2018-06-04T14:47:23.538Z,8.80
2018-06-04T14:49:52.094Z,5.70
2018-06-04T14:52:20.835Z,5.27
2018-06-04T14:54:49.353Z,8.53
2018-06-04T14:57:17.882Z,3.83
2018-06-04T14:59:46.387Z,5.90
2018-06-04T15:02:14.886Z,8.73
2018-06-04T15:04:43.385Z,6.23
2018-06-04T15:07:11.885Z,6.17
2018-06-04T15:09:40.489Z,8.33
2018-06-04T15:12:09.077Z,8.33
2018-06-04T15:14:37.583Z,3.80
2018-06-04T15:17:06.138Z,3.43
2018-06-04T15:19:34.625Z,6.60
2018-06-04T15:22:03.197Z,5.87
2018-06-04T15:24:31.724Z,6.43
2018-06-04T15:27:00.377Z,6.60
2018-06-04T15:29:28.905Z,10.03
2018-06-04T15:31:57.422Z,4.93
2018-06-04T15:34:25.911Z,8.37
2018-06-04T15:36:54.474Z,6.83
2018-06-04T15:39:23.623Z,4.17
2018-06-04T15:41:52.203Z,9.33
2018-06-04T15:44:20.843Z,6.97
2018-06-04T15:46:49.406Z,4.70
2018-06-04T15:49:17.894Z,5.03
2018-06-04T15:51:46.376Z,8.43
2018-06-04T15:54:14.879Z,7.70
2018-06-04T15:56:43.650Z,9.67
2018-06-04T15:59:12.267Z,8.23
2018-06-04T16:01:40.760Z,5.37
2018-06-04T16:04:09.261Z,6.37
2018-06-04T16:06:37.782Z,7.93
2018-06-04T16:09:07.320Z,7.03
2018-06-04T16:11:35.820Z,10.90
2018-06-04T16:14:04.390Z,12.70
2018-06-04T16:16:32.924Z,6.73
2018-06-04T16:19:01.427Z,8.43
2018-06-04T16:21:30.109Z,7.13
2018-06-04T16:23:58.661Z,10.37
2018-06-04T16:26:27.160Z,8.17
2018-06-04T16:28:55.608Z,7.23
2018-06-04T16:31:24.101Z,6.50
2018-06-04T16:33:52.639Z,6.10
2018-06-04T16:36:21.144Z,8.63
2018-06-04T16:38:49.633Z,5.30
2018-06-04T16:41:18.130Z,6.87
2018-06-04T16:43:46.645Z,6.57
2018-06-04T16:46:15.865Z,4.27
2018-06-04T16:48:44.390Z,6.47
2018-06-04T16:51:13.028Z,4.17
2018-06-04T16:53:41.545Z,3.67
2018-06-04T16:56:10.060Z,5.07
2018-06-04T16:58:38.596Z,4.83
2018-06-04T17:01:07.165Z,7.77
2018-06-04T17:03:35.694Z,7.80
2018-06-04T17:06:04.282Z,7.60
2018-06-04T17:08:32.955Z,5.03
2018-06-04T17:11:01.486Z,8.43
2018-06-04T17:13:29.992Z,10.03
2018-06-04T17:15:59.252Z,9.63
2018-06-04T17:18:28.625Z,6.27
2018-06-04T17:20:57.124Z,6.83
2018-06-04T17:23:25.632Z,11.23
2018-06-04T17:25:54.141Z,12.70
2018-06-04T17:28:22.628Z,8.20
2018-06-04T17:30:51.476Z,9.07
2018-06-04T17:33:20.691Z,11.13
2018-06-04T17:35:49.189Z,6.90
2018-06-04T17:38:17.685Z,8.90
2018-06-04T17:40:46.178Z,8.37
2018-06-04T17:43:14.692Z,6.03
2018-06-04T17:45:43.223Z,9.17
2018-06-04T17:48:11.722Z,8.70
2018-06-04T17:50:40.928Z,9.67
2018-06-04T17:53:10.180Z,12.47
2018-06-04T17:55:39.413Z,7.90
2018-06-04T17:58:08.408Z,7.83
2018-06-04T18:00:37.440Z,5.23
2018-06-04T18:03:06.484Z,8.27
2018-06-04T18:05:35.012Z,5.87
2018-06-04T18:08:03.536Z,5.00
2018-06-04T18:10:32.052Z,6.03
2018-06-04T18:13:00.536Z,6.57
2018-06-04T18:15:28.988Z,11.17
2018-06-04T18:17:57.514Z,4.80
2018-06-04T18:20:26.041Z,6.27
2018-06-04T18:22:55.004Z,10.00
2018-06-04T18:25:23.600Z,6.20
2018-06-04T18:27:52.134Z,8.00
2018-06-04T18:30:20.645Z,10.77
2018-06-04T18:32:49.176Z,10.20
2018-06-04T18:35:17.721Z,5.40
2018-06-04T18:37:46.237Z,7.27
2018-06-04T18:40:14.728Z,10.20
2018-06-04T18:42:43.227Z,8.13
2018-06-04T18:45:11.719Z,9.50
2018-06-04T18:47:40.281Z,5.73
2018-06-04T18:50:08.786Z,9.17
2018-06-04T18:52:37.304Z,11.03
2018-06-04T18:55:05.872Z,10.03
2018-06-04T18:57:34.411Z,6.73
2018-06-04T19:00:02.928Z,8.73
2018-06-04T19:02:31.458Z,6.23
2018-06-04T19:04:59.949Z,11.33
2018-06-04T19:07:28.452Z,9.90
2018-06-04T19:09:57.080Z,7.07
2018-06-04T19:12:25.642Z,10.17
2018-06-04T19:14:54.400Z,5.40
2018-06-04T19:17:23.058Z,7.93
2018-06-04T19:19:51.649Z,10.13
2018-06-04T19:22:20.184Z,8.40
2018-06-04T19:24:48.729Z,6.90
2018-06-04T19:27:17.334Z,8.70
2018-06-04T19:29:46.020Z,5.40
2018-06-04T19:32:14.492Z,4.80
2018-06-04T19:34:43.089Z,4.47
2018-06-04T19:37:11.642Z,11.80
2018-06-04T19:39:40.261Z,9.50
2018-06-04T19:42:08.829Z,8.63
2018-06-04T19:44:37.306Z,8.60
2018-06-04T19:47:05.832Z,10.17
2018-06-04T19:49:34.320Z,5.97
2018-06-04T19:52:02.793Z,6.47
2018-06-04T19:54:31.241Z,6.83
2018-06-04T19:56:59.705Z,9.60
2018-06-04T19:59:28.399Z,9.67
2018-06-04T20:01:57.049Z,7.50
2018-06-04T20:04:25.530Z,7.63
2018-06-04T20:06:53.971Z,6.80
2018-06-04T20:09:22.471Z,6.27
2018-06-04T20:11:51.040Z,5.60
2018-06-04T20:14:19.491Z,4.83
2018-06-04T20:16:47.988Z,7.53
2018-06-04T20:19:16.420Z,8.47
2018-06-04T20:21:44.890Z,6.70
2018-06-04T20:24:13.342Z,4.13
2018-06-04T20:26:41.805Z,5.80
2018-06-04T20:29:10.266Z,5.73
2018-06-04T20:31:38.757Z,5.90
2018-06-04T20:34:07.249Z,8.07
2018-06-04T20:36:35.716Z,5.33
2018-06-04T20:39:04.404Z,5.97
2018-06-04T20:41:32.872Z,5.37
2018-06-04T20:44:01.469Z,6.53
2018-06-04T20:46:29.995Z,5.67
2018-06-04T20:48:58.433Z,4.73
2018-06-04T20:51:26.977Z,4.77
2018-06-04T20:53:55.433Z,3.73
2018-06-04T20:56:23.953Z,4.90
2018-06-04T20:58:52.425Z,4.07
2018-06-04T21:01:20.976Z,3.23
2018-06-04T21:03:49.488Z,4.60
2018-06-04T21:06:17.924Z,7.27
2018-06-04T21:08:46.491Z,5.50
2018-06-04T21:11:14.944Z,7.23
2018-06-04T21:13:43.669Z,6.00
2018-06-04T21:16:12.160Z,4.73
2018-06-04T21:18:40.608Z,4.57
2018-06-04T21:21:09.060Z,3.30
2018-06-04T21:23:37.532Z,5.40
2018-06-04T21:26:06.017Z,5.53
2018-06-04T21:28:34.461Z,7.80
2018-06-04T21:31:02.914Z,7.60
2018-06-04T21:33:31.421Z,5.60
2018-06-04T21:35:59.908Z,6.53
2018-06-04T21:38:28.560Z,7.90
2018-06-04T21:40:57.005Z,7.10
2018-06-04T21:43:25.512Z,7.03
2018-06-04T21:45:53.961Z,5.70
2018-06-04T21:48:22.418Z,5.30
2018-06-04T21:50:50.861Z,5.00
2018-06-04T21:53:19.300Z,4.83
2018-06-04T21:55:47.757Z,4.20
2018-06-04T21:58:16.208Z,4.73
2018-06-04T22:00:44.714Z,5.30
2018-06-04T22:03:13.158Z,4.27
2018-06-04T22:05:41.597Z,4.93
2018-06-04T22:08:10.138Z,10.50
2018-06-04T22:10:38.677Z,4.33
2018-06-04T22:13:07.188Z,6.33
2018-06-04T22:15:35.681Z,4.33
2018-06-04T22:18:04.140Z,6.20
2018-06-04T22:20:32.584Z,6.83
2018-06-04T22:23:01.109Z,6.47
2018-06-04T22:25:29.568Z,5.20
2018-06-04T22:27:58.070Z,2.93
2018-06-04T22:30:26.560Z,5.60
2018-06-04T22:32:55.066Z,5.30
2018-06-04T22:35:23.514Z,4.83
2018-06-04T22:37:52.005Z,3.40
2018-06-04T22:40:20.561Z,6.53
2018-06-04T22:42:49.058Z,4.23
2018-06-04T22:45:17.621Z,4.90
2018-06-04T22:47:46.127Z,3.07
2018-06-04T22:50:14.625Z,3.00
2018-06-04T22:52:43.118Z,3.80
2018-06-04T22:55:11.564Z,2.40
2018-06-04T22:57:40.061Z,6.17
2018-06-04T23:00:08.523Z,5.80
2018-06-04T23:02:36.942Z,3.73
2018-06-04T23:05:05.525Z,3.20
2018-06-04T23:07:34.052Z,6.03
2018-06-04T23:10:02.583Z,3.03
2018-06-04T23:12:31.128Z,2.87
2018-06-04T23:14:59.636Z,2.43
2018-06-04T23:17:28.253Z,4.57
2018-06-04T23:19:56.760Z,3.70
2018-06-04T23:22:25.257Z,2.57
2018-06-04T23:24:53.817Z,4.77
2018-06-04T23:27:22.327Z,4.40
2018-06-04T23:29:50.814Z,3.80
2018-06-04T23:32:19.302Z,3.67
2018-06-04T23:34:47.821Z,6.00
2018-06-04T23:37:16.321Z,6.10
2018-06-04T23:39:44.803Z,5.53
2018-06-04T23:42:13.310Z,5.63
2018-06-04T23:44:42.421Z,3.80
2018-06-04T23:47:11.039Z,4.87
2018-06-04T23:49:39.512Z,4.00
2018-06-04T23:52:08.019Z,8.13
2018-06-04T23:54:36.513Z,5.93
2018-06-04T23:57:05.012Z,9.50
2018-06-04T23:59:33.526Z,5.20
